sensor_id;sensor_type;location;lat;lon;timestamp;pressure;altitude;pressure_sealevel;temperature;humidity
52719;BME280;38616;42.140;24.760;2023-04-24T00:00:33;99455.66;;;13.02;53.10
52719;BME280;38616;42.140;24.760;2023-04-24T00:02:59;99458.47;;;12.97;53.13
52719;BME280;38616;42.140;24.760;2023-04-24T00:05:24;99470.81;;;13.22;52.47
52719;BME280;38616;42.140;24.760;2023-04-24T00:07:52;99463.84;;;13.30;52.36
52719;BME280;38616;42.140;24.760;2023-04-24T00:10:18;99467.91;;;13.19;52.76
52719;BME280;38616;42.140;24.760;2023-04-24T00:12:44;99466.13;;;12.95;53.22
52719;BME280;38616;42.140;24.760;2023-04-24T00:15:10;99461.78;;;12.61;54.18
52719;BME280;38616;42.140;24.760;2023-04-24T00:17:35;99470.53;;;12.57;54.68
52719;BME280;38616;42.140;24.760;2023-04-24T00:20:01;99471.38;;;12.39;55.20
52719;BME280;38616;42.140;24.760;2023-04-24T00:22:30;99467.47;;;12.45;55.52
52719;BME280;38616;42.140;24.760;2023-04-24T00:24:56;99462.25;;;12.82;54.13
52719;BME280;38616;42.140;24.760;2023-04-24T00:27:22;99473.25;;;12.77;54.12
52719;BME280;38616;42.140;24.760;2023-04-24T00:29:48;99460.34;;;12.82;54.53
52719;BME280;38616;42.140;24.760;2023-04-24T00:32:14;99458.91;;;12.85;54.66
52719;BME280;38616;42.140;24.760;2023-04-24T00:34:39;99458.38;;;13.16;53.63
52719;BME280;38616;42.140;24.760;2023-04-24T00:37:05;99453.06;;;13.25;53.40
52719;BME280;38616;42.140;24.760;2023-04-24T00:39:31;99453.53;;;13.13;53.80
52719;BME280;38616;42.140;24.760;2023-04-24T00:41:57;99448.59;;;13.15;53.33
52719;BME280;38616;42.140;24.760;2023-04-24T00:44:22;99441.31;;;13.24;53.12
52719;BME280;38616;42.140;24.760;2023-04-24T00:46:49;99446.78;;;13.10;53.71
52719;BME280;38616;42.140;24.760;2023-04-24T00:49:18;99449.81;;;13.37;53.33
52719;BME280;38616;42.140;24.760;2023-04-24T00:51:44;99454.03;;;13.29;53.29
52719;BME280;38616;42.140;24.760;2023-04-24T00:54:12;99447.38;;;13.35;53.21
52719;BME280;38616;42.140;24.760;2023-04-24T00:56:37;99458.09;;;13.32;52.99
52719;BME280;38616;42.140;24.760;2023-04-24T00:59:03;99459.41;;;13.20;53.42
52719;BME280;38616;42.140;24.760;2023-04-24T01:01:29;99449.28;;;13.07;53.70
52719;BME280;38616;42.140;24.760;2023-04-24T01:03:57;99450.00;;;13.12;53.88
52719;BME280;38616;42.140;24.760;2023-04-24T01:06:23;99455.06;;;13.19;53.51
52719;BME280;38616;42.140;24.760;2023-04-24T01:08:52;99466.69;;;13.25;53.31
52719;BME280;38616;42.140;24.760;2023-04-24T01:11:18;99452.69;;;12.84;54.04
52719;BME280;38616;42.140;24.760;2023-04-24T01:13:43;99447.22;;;12.51;54.91
52719;BME280;38616;42.140;24.760;2023-04-24T01:16:10;99455.38;;;12.51;55.61
52719;BME280;38616;42.140;24.760;2023-04-24T01:18:35;99457.81;;;12.53;55.41
52719;BME280;38616;42.140;24.760;2023-04-24T01:21:04;99447.22;;;12.51;55.61
52719;BME280;38616;42.140;24.760;2023-04-24T01:23:29;99442.69;;;12.61;55.70
52719;BME280;38616;42.140;24.760;2023-04-24T01:25:55;99449.13;;;12.51;55.40
52719;BME280;38616;42.140;24.760;2023-04-24T01:28:21;99441.84;;;12.79;55.14
52719;BME280;38616;42.140;24.760;2023-04-24T01:30:47;99456.16;;;12.71;55.08
52719;BME280;38616;42.140;24.760;2023-04-24T01:33:13;99456.84;;;12.63;54.90
52719;BME280;38616;42.140;24.760;2023-04-24T01:35:38;99456.22;;;12.33;55.91
52719;BME280;38616;42.140;24.760;2023-04-24T01:38:04;99454.34;;;12.47;56.08
52719;BME280;38616;42.140;24.760;2023-04-24T01:40:31;99453.59;;;12.61;55.26
52719;BME280;38616;42.140;24.760;2023-04-24T01:42:57;99454.50;;;12.37;55.88
52719;BME280;38616;42.140;24.760;2023-04-24T01:45:23;99457.50;;;12.54;55.72
52719;BME280;38616;42.140;24.760;2023-04-24T01:47:49;99455.09;;;12.53;55.42
52719;BME280;38616;42.140;24.760;2023-04-24T01:50:15;99452.72;;;12.65;55.64
52719;BME280;38616;42.140;24.760;2023-04-24T01:52:40;99446.09;;;12.71;55.57
52719;BME280;38616;42.140;24.760;2023-04-24T01:55:06;99447.09;;;12.76;56.04
52719;BME280;38616;42.140;24.760;2023-04-24T01:57:33;99445.06;;;12.67;56.19
52719;BME280;38616;42.140;24.760;2023-04-24T01:59:58;99451.72;;;12.75;56.00
52719;BME280;38616;42.140;24.760;2023-04-24T02:02:24;99452.28;;;12.58;56.31
52719;BME280;38616;42.140;24.760;2023-04-24T02:04:52;99455.69;;;12.50;56.86
52719;BME280;38616;42.140;24.760;2023-04-24T02:07:18;99454.50;;;12.56;56.53
52719;BME280;38616;42.140;24.760;2023-04-24T02:09:43;99449.22;;;12.46;56.53
52719;BME280;38616;42.140;24.760;2023-04-24T02:12:09;99449.50;;;12.44;56.70
52719;BME280;38616;42.140;24.760;2023-04-24T02:14:37;99440.88;;;12.37;56.92
52719;BME280;38616;42.140;24.760;2023-04-24T02:17:02;99441.50;;;12.34;57.22
52719;BME280;38616;42.140;24.760;2023-04-24T02:19:28;99434.06;;;12.20;57.25
52719;BME280;38616;42.140;24.760;2023-04-24T02:21:54;99433.56;;;12.18;57.89
52719;BME280;38616;42.140;24.760;2023-04-24T02:24:19;99430.97;;;12.27;57.09
52719;BME280;38616;42.140;24.760;2023-04-24T02:26:45;99430.25;;;12.21;57.49
52719;BME280;38616;42.140;24.760;2023-04-24T02:29:10;99427.22;;;12.04;57.75
52719;BME280;38616;42.140;24.760;2023-04-24T02:31:36;99435.16;;;12.00;58.15
52719;BME280;38616;42.140;24.760;2023-04-24T02:34:01;99425.13;;;11.95;58.55
52719;BME280;38616;42.140;24.760;2023-04-24T02:36:26;99417.97;;;12.05;58.23
52719;BME280;38616;42.140;24.760;2023-04-24T02:38:52;99422.09;;;11.97;58.32
52719;BME280;38616;42.140;24.760;2023-04-24T02:41:17;99421.06;;;11.93;58.70
52719;BME280;38616;42.140;24.760;2023-04-24T02:43:43;99427.81;;;12.01;58.41
52719;BME280;38616;42.140;24.760;2023-04-24T02:46:08;99428.38;;;11.97;58.44
52719;BME280;38616;42.140;24.760;2023-04-24T02:48:34;99422.31;;;12.06;58.47
52719;BME280;38616;42.140;24.760;2023-04-24T02:51:01;99419.09;;;11.98;58.55
52719;BME280;38616;42.140;24.760;2023-04-24T02:53:26;99414.13;;;12.06;58.14
52719;BME280;38616;42.140;24.760;2023-04-24T02:55:52;99423.22;;;11.96;58.40
52719;BME280;38616;42.140;24.760;2023-04-24T02:58:17;99427.59;;;12.16;58.05
52719;BME280;38616;42.140;24.760;2023-04-24T03:00:45;99424.13;;;12.10;58.32
52719;BME280;38616;42.140;24.760;2023-04-24T03:03:11;99420.69;;;12.05;57.87
52719;BME280;38616;42.140;24.760;2023-04-24T03:05:37;99426.19;;;12.00;58.72
52719;BME280;38616;42.140;24.760;2023-04-24T03:08:02;99428.13;;;11.94;58.32
52719;BME280;38616;42.140;24.760;2023-04-24T03:10:28;99423.47;;;12.00;58.53
52719;BME280;38616;42.140;24.760;2023-04-24T03:12:53;99420.16;;;12.03;58.51
52719;BME280;38616;42.140;24.760;2023-04-24T03:15:20;99428.38;;;11.97;58.59
52719;BME280;38616;42.140;24.760;2023-04-24T03:17:45;99423.00;;;11.92;58.81
52719;BME280;38616;42.140;24.760;2023-04-24T03:20:11;99432.78;;;11.93;58.58
52719;BME280;38616;42.140;24.760;2023-04-24T03:22:36;99435.44;;;11.98;58.20
52719;BME280;38616;42.140;24.760;2023-04-24T03:25:02;99433.38;;;11.90;58.51
52719;BME280;38616;42.140;24.760;2023-04-24T03:27:27;99443.78;;;12.07;58.25
52719;BME280;38616;42.140;24.760;2023-04-24T03:29:53;99433.81;;;11.97;58.06
52719;BME280;38616;42.140;24.760;2023-04-24T03:32:21;99440.22;;;11.88;58.59
52719;BME280;38616;42.140;24.760;2023-04-24T03:34:48;99441.03;;;11.88;58.47
52719;BME280;38616;42.140;24.760;2023-04-24T03:37:14;99449.19;;;11.88;58.76
52719;BME280;38616;42.140;24.760;2023-04-24T03:39:40;99455.06;;;11.95;58.75
52719;BME280;38616;42.140;24.760;2023-04-24T03:42:07;99439.50;;;12.01;58.25
52719;BME280;38616;42.140;24.760;2023-04-24T03:44:34;99444.16;;;12.01;58.22
52719;BME280;38616;42.140;24.760;2023-04-24T03:46:59;99440.06;;;11.98;58.12
52719;BME280;38616;42.140;24.760;2023-04-24T03:49:25;99439.81;;;12.00;57.81
52719;BME280;38616;42.140;24.760;2023-04-24T03:51:50;99439.22;;;12.03;57.83
52719;BME280;38616;42.140;24.760;2023-04-24T03:54:18;99436.53;;;11.97;58.18
52719;BME280;38616;42.140;24.760;2023-04-24T03:56:43;99431.38;;;11.96;58.02
52719;BME280;38616;42.140;24.760;2023-04-24T03:59:09;99433.31;;;12.15;58.35
52719;BME280;38616;42.140;24.760;2023-04-24T04:01:34;99428.50;;;11.87;58.45
52719;BME280;38616;42.140;24.760;2023-04-24T04:04:03;99425.00;;;11.87;58.50
52719;BME280;38616;42.140;24.760;2023-04-24T04:06:28;99435.97;;;12.01;58.32
52719;BME280;38616;42.140;24.760;2023-04-24T04:08:56;99436.94;;;12.10;58.02
52719;BME280;38616;42.140;24.760;2023-04-24T04:11:22;99444.47;;;11.94;58.22
52719;BME280;38616;42.140;24.760;2023-04-24T04:13:47;99449.00;;;12.04;58.67
52719;BME280;38616;42.140;24.760;2023-04-24T04:16:13;99453.66;;;11.79;58.89
52719;BME280;38616;42.140;24.760;2023-04-24T04:18:39;99450.59;;;11.61;59.44
52719;BME280;38616;42.140;24.760;2023-04-24T04:21:04;99464.09;;;11.72;59.11
52719;BME280;38616;42.140;24.760;2023-04-24T04:23:30;99457.19;;;11.55;59.77
52719;BME280;38616;42.140;24.760;2023-04-24T04:25:57;99460.84;;;11.21;60.91
52719;BME280;38616;42.140;24.760;2023-04-24T04:28:22;99464.31;;;11.27;61.37
52719;BME280;38616;42.140;24.760;2023-04-24T04:30:49;99458.31;;;11.54;60.66
52719;BME280;38616;42.140;24.760;2023-04-24T04:33:21;99471.31;;;11.81;59.80
52719;BME280;38616;42.140;24.760;2023-04-24T04:35:47;99469.50;;;11.52;59.86
52719;BME280;38616;42.140;24.760;2023-04-24T04:38:22;99464.94;;;11.48;60.27
52719;BME280;38616;42.140;24.760;2023-04-24T04:40:47;99462.22;;;11.48;60.17
52719;BME280;38616;42.140;24.760;2023-04-24T04:43:13;99468.09;;;11.55;60.19
52719;BME280;38616;42.140;24.760;2023-04-24T04:45:40;99466.03;;;11.47;60.32
52719;BME280;38616;42.140;24.760;2023-04-24T04:48:07;99465.56;;;11.83;59.24
52719;BME280;38616;42.140;24.760;2023-04-24T04:50:36;99476.69;;;12.11;58.41
52719;BME280;38616;42.140;24.760;2023-04-24T04:53:04;99476.91;;;11.90;58.72
52719;BME280;38616;42.140;24.760;2023-04-24T04:55:30;99469.41;;;11.82;58.61
52719;BME280;38616;42.140;24.760;2023-04-24T04:57:55;99460.22;;;12.21;57.95
52719;BME280;38616;42.140;24.760;2023-04-24T05:00:22;99464.38;;;12.14;58.15
52719;BME280;38616;42.140;24.760;2023-04-24T05:02:50;99455.34;;;12.18;57.67
52719;BME280;38616;42.140;24.760;2023-04-24T05:05:16;99453.19;;;12.34;57.29
52719;BME280;38616;42.140;24.760;2023-04-24T05:07:43;99452.81;;;12.60;56.97
52719;BME280;38616;42.140;24.760;2023-04-24T05:10:08;99450.94;;;12.75;55.66
52719;BME280;38616;42.140;24.760;2023-04-24T05:12:34;99456.47;;;12.69;56.11
52719;BME280;38616;42.140;24.760;2023-04-24T05:14:59;99457.41;;;12.79;56.20
52719;BME280;38616;42.140;24.760;2023-04-24T05:17:25;99458.47;;;12.97;55.65
52719;BME280;38616;42.140;24.760;2023-04-24T05:19:51;99461.53;;;13.09;55.30
52719;BME280;38616;42.140;24.760;2023-04-24T05:22:16;99437.84;;;12.91;55.51
52719;BME280;38616;42.140;24.760;2023-04-24T05:24:43;99451.56;;;12.85;56.07
52719;BME280;38616;42.140;24.760;2023-04-24T05:27:09;99445.09;;;12.81;56.16
52719;BME280;38616;42.140;24.760;2023-04-24T05:29:34;99446.53;;;12.93;55.91
52719;BME280;38616;42.140;24.760;2023-04-24T05:32:00;99437.50;;;13.25;54.94
52719;BME280;38616;42.140;24.760;2023-04-24T05:34:26;99431.97;;;13.44;54.49
52719;BME280;38616;42.140;24.760;2023-04-24T05:36:51;99429.44;;;13.48;54.44
52719;BME280;38616;42.140;24.760;2023-04-24T05:39:18;99422.16;;;13.43;54.41
52719;BME280;38616;42.140;24.760;2023-04-24T05:41:44;99431.19;;;12.97;55.31
52719;BME280;38616;42.140;24.760;2023-04-24T05:44:10;99420.44;;;12.73;55.86
52719;BME280;38616;42.140;24.760;2023-04-24T05:46:35;99425.66;;;12.69;56.43
52719;BME280;38616;42.140;24.760;2023-04-24T05:49:01;99431.63;;;13.04;56.01
52719;BME280;38616;42.140;24.760;2023-04-24T05:51:27;99419.44;;;13.43;55.06
52719;BME280;38616;42.140;24.760;2023-04-24T05:53:53;99429.22;;;13.30;55.13
52719;BME280;38616;42.140;24.760;2023-04-24T05:56:18;99430.09;;;13.12;55.71
52719;BME280;38616;42.140;24.760;2023-04-24T05:58:45;99435.81;;;12.96;55.96
52719;BME280;38616;42.140;24.760;2023-04-24T06:01:11;99424.03;;;13.15;55.94
52719;BME280;38616;42.140;24.760;2023-04-24T06:03:38;99428.78;;;13.23;55.77
52719;BME280;38616;42.140;24.760;2023-04-24T06:06:03;99422.56;;;13.51;55.44
52719;BME280;38616;42.140;24.760;2023-04-24T06:08:29;99434.25;;;13.23;55.93
52719;BME280;38616;42.140;24.760;2023-04-24T06:10:54;99439.19;;;13.35;56.20
52719;BME280;38616;42.140;24.760;2023-04-24T06:13:20;99436.56;;;13.16;56.75
52719;BME280;38616;42.140;24.760;2023-04-24T06:15:45;99432.34;;;13.38;56.75
52719;BME280;38616;42.140;24.760;2023-04-24T06:18:10;99430.91;;;13.40;56.58
52719;BME280;38616;42.140;24.760;2023-04-24T06:20:38;99432.25;;;13.57;56.36
52719;BME280;38616;42.140;24.760;2023-04-24T06:23:03;99428.81;;;13.65;56.02
52719;BME280;38616;42.140;24.760;2023-04-24T06:25:28;99428.22;;;13.54;56.96
52719;BME280;38616;42.140;24.760;2023-04-24T06:27:55;99428.66;;;13.98;55.39
52719;BME280;38616;42.140;24.760;2023-04-24T06:30:20;99423.72;;;13.86;55.11
52719;BME280;38616;42.140;24.760;2023-04-24T06:32:46;99427.88;;;13.70;55.48
52719;BME280;38616;42.140;24.760;2023-04-24T06:35:11;99427.81;;;13.61;55.96
52719;BME280;38616;42.140;24.760;2023-04-24T06:37:39;99421.38;;;13.94;55.81
52719;BME280;38616;42.140;24.760;2023-04-24T06:40:05;99429.06;;;14.28;55.02
52719;BME280;38616;42.140;24.760;2023-04-24T06:42:30;99424.97;;;14.40;54.20
52719;BME280;38616;42.140;24.760;2023-04-24T06:44:56;99429.81;;;14.43;54.03
52719;BME280;38616;42.140;24.760;2023-04-24T06:47:21;99426.97;;;14.48;54.44
52719;BME280;38616;42.140;24.760;2023-04-24T06:49:47;99433.19;;;14.62;54.18
52719;BME280;38616;42.140;24.760;2023-04-24T06:52:12;99427.53;;;14.82;53.80
52719;BME280;38616;42.140;24.760;2023-04-24T06:54:37;99425.06;;;15.03;52.92
52719;BME280;38616;42.140;24.760;2023-04-24T06:57:03;99431.38;;;15.12;53.05
52719;BME280;38616;42.140;24.760;2023-04-24T06:59:29;99427.03;;;15.11;52.59
52719;BME280;38616;42.140;24.760;2023-04-24T07:01:56;99434.47;;;15.19;52.54
52719;BME280;38616;42.140;24.760;2023-04-24T07:04:22;99424.16;;;15.16;52.41
52719;BME280;38616;42.140;24.760;2023-04-24T07:06:52;99440.34;;;15.04;52.99
52719;BME280;38616;42.140;24.760;2023-04-24T07:09:21;99425.88;;;15.03;52.79
52719;BME280;38616;42.140;24.760;2023-04-24T07:11:47;99429.19;;;15.23;52.44
52719;BME280;38616;42.140;24.760;2023-04-24T07:14:12;99437.91;;;15.25;52.67
52719;BME280;38616;42.140;24.760;2023-04-24T07:16:38;99435.53;;;15.01;52.23
52719;BME280;38616;42.140;24.760;2023-04-24T07:19:04;99443.91;;;14.59;52.96
52719;BME280;38616;42.140;24.760;2023-04-24T07:21:29;99435.06;;;14.76;52.67
52719;BME280;38616;42.140;24.760;2023-04-24T07:23:57;99438.44;;;14.73;52.40
52719;BME280;38616;42.140;24.760;2023-04-24T07:26:23;99429.72;;;14.94;52.07
52719;BME280;38616;42.140;24.760;2023-04-24T07:28:48;99425.84;;;14.95;51.72
52719;BME280;38616;42.140;24.760;2023-04-24T07:31:14;99430.31;;;14.68;52.06
52719;BME280;38616;42.140;24.760;2023-04-24T07:33:39;99431.72;;;14.79;51.79
52719;BME280;38616;42.140;24.760;2023-04-24T07:36:05;99436.84;;;14.81;51.99
52719;BME280;38616;42.140;24.760;2023-04-24T07:38:30;99431.44;;;14.67;53.14
52719;BME280;38616;42.140;24.760;2023-04-24T07:40:56;99426.97;;;14.48;53.43
52719;BME280;38616;42.140;24.760;2023-04-24T07:43:22;99431.47;;;14.98;52.63
52719;BME280;38616;42.140;24.760;2023-04-24T07:45:49;99430.19;;;15.36;51.35
52719;BME280;38616;42.140;24.760;2023-04-24T07:48:15;99426.41;;;15.63;51.01
52719;BME280;38616;42.140;24.760;2023-04-24T07:50:42;99423.28;;;15.97;50.25
52719;BME280;38616;42.140;24.760;2023-04-24T07:53:07;99416.50;;;15.94;49.90
52719;BME280;38616;42.140;24.760;2023-04-24T07:55:33;99424.25;;;16.09;49.68
52719;BME280;38616;42.140;24.760;2023-04-24T07:57:58;99416.34;;;16.17;49.38
52719;BME280;38616;42.140;24.760;2023-04-24T08:00:24;99412.50;;;16.27;49.36
52719;BME280;38616;42.140;24.760;2023-04-24T08:02:49;99408.47;;;16.24;49.24
52719;BME280;38616;42.140;24.760;2023-04-24T08:05:14;99410.88;;;16.17;49.59
52719;BME280;38616;42.140;24.760;2023-04-24T08:07:40;99406.34;;;16.03;49.59
52719;BME280;38616;42.140;24.760;2023-04-24T08:10:09;99397.50;;;15.89;49.78
52719;BME280;38616;42.140;24.760;2023-04-24T08:12:35;99404.16;;;15.56;50.28
52719;BME280;38616;42.140;24.760;2023-04-24T08:15:00;99410.50;;;15.83;50.10
52719;BME280;38616;42.140;24.760;2023-04-24T08:17:26;99407.47;;;16.02;50.00
52719;BME280;38616;42.140;24.760;2023-04-24T08:19:51;99401.19;;;16.10;48.97
52719;BME280;38616;42.140;24.760;2023-04-24T08:22:18;99400.69;;;15.91;49.31
52719;BME280;38616;42.140;24.760;2023-04-24T08:24:44;99394.81;;;15.57;50.03
52719;BME280;38616;42.140;24.760;2023-04-24T08:27:09;99390.66;;;15.69;49.80
52719;BME280;38616;42.140;24.760;2023-04-24T08:29:36;99386.78;;;15.61;50.18
52719;BME280;38616;42.140;24.760;2023-04-24T08:32:01;99381.06;;;16.15;49.72
52719;BME280;38616;42.140;24.760;2023-04-24T08:34:27;99377.03;;;16.13;49.35
52719;BME280;38616;42.140;24.760;2023-04-24T08:36:52;99376.69;;;16.05;50.00
52719;BME280;38616;42.140;24.760;2023-04-24T08:39:17;99373.97;;;16.32;49.78
52719;BME280;38616;42.140;24.760;2023-04-24T08:41:43;99369.69;;;16.69;49.31
52719;BME280;38616;42.140;24.760;2023-04-24T08:44:11;99367.69;;;16.88;48.44
52719;BME280;38616;42.140;24.760;2023-04-24T08:46:37;99366.78;;;16.66;48.70
52719;BME280;38616;42.140;24.760;2023-04-24T08:49:04;99363.13;;;16.53;48.85
52719;BME280;38616;42.140;24.760;2023-04-24T08:51:31;99367.09;;;16.73;47.55
52719;BME280;38616;42.140;24.760;2023-04-24T08:53:57;99367.91;;;16.65;47.32
52719;BME280;38616;42.140;24.760;2023-04-24T08:56:23;99359.25;;;16.54;47.51
52719;BME280;38616;42.140;24.760;2023-04-24T08:58:50;99359.69;;;16.74;47.06
52719;BME280;38616;42.140;24.760;2023-04-24T09:01:18;99354.25;;;17.04;47.47
52719;BME280;38616;42.140;24.760;2023-04-24T09:03:45;99349.53;;;17.13;47.28
52719;BME280;38616;42.140;24.760;2023-04-24T09:06:14;99335.56;;;17.27;47.32
52719;BME280;38616;42.140;24.760;2023-04-24T09:08:42;99352.31;;;16.95;48.12
52719;BME280;38616;42.140;24.760;2023-04-24T09:11:09;99343.47;;;16.90;48.82
52719;BME280;38616;42.140;24.760;2023-04-24T09:13:37;99343.47;;;16.98;48.22
52719;BME280;38616;42.140;24.760;2023-04-24T09:16:03;99339.75;;;16.94;48.03
52719;BME280;38616;42.140;24.760;2023-04-24T09:18:29;99339.13;;;17.27;47.63
52719;BME280;38616;42.140;24.760;2023-04-24T09:21:06;99341.88;;;17.27;46.77
52719;BME280;38616;42.140;24.760;2023-04-24T09:23:32;99336.22;;;17.24;46.64
52719;BME280;38616;42.140;24.760;2023-04-24T09:25:59;99328.75;;;17.33;46.70
52719;BME280;38616;42.140;24.760;2023-04-24T09:28:35;99321.00;;;17.35;46.89
52719;BME280;38616;42.140;24.760;2023-04-24T09:33:32;99329.38;;;17.39;46.60
52719;BME280;38616;42.140;24.760;2023-04-24T09:35:58;99327.34;;;16.97;48.48
52719;BME280;38616;42.140;24.760;2023-04-24T09:38:39;99324.78;;;16.83;49.75
52719;BME280;38616;42.140;24.760;2023-04-24T09:41:12;99322.81;;;17.01;49.72
52719;BME280;38616;42.140;24.760;2023-04-24T09:43:38;99309.31;;;17.17;49.84
52719;BME280;38616;42.140;24.760;2023-04-24T09:46:06;99315.28;;;17.19;49.75
52719;BME280;38616;42.140;24.760;2023-04-24T09:48:32;99317.16;;;16.97;50.04
52719;BME280;38616;42.140;24.760;2023-04-24T09:50:58;99306.91;;;16.77;50.28
52719;BME280;38616;42.140;24.760;2023-04-24T09:53:24;99304.88;;;17.04;49.39
52719;BME280;38616;42.140;24.760;2023-04-24T09:55:51;99305.06;;;16.90;49.59
52719;BME280;38616;42.140;24.760;2023-04-24T09:58:18;99300.38;;;16.90;49.65
52719;BME280;38616;42.140;24.760;2023-04-24T10:00:45;99290.84;;;16.96;49.46
52719;BME280;38616;42.140;24.760;2023-04-24T10:03:11;99285.91;;;17.62;48.62
52719;BME280;38616;42.140;24.760;2023-04-24T10:05:37;99282.81;;;18.06;47.38
52719;BME280;38616;42.140;24.760;2023-04-24T10:10:33;99293.69;;;17.39;48.52
52719;BME280;38616;42.140;24.760;2023-04-24T10:12:59;99299.84;;;17.36;48.95
52719;BME280;38616;42.140;24.760;2023-04-24T10:15:26;99286.94;;;17.57;48.84
52719;BME280;38616;42.140;24.760;2023-04-24T10:17:52;99278.91;;;18.07;47.12
52719;BME280;38616;42.140;24.760;2023-04-24T10:20:28;99279.88;;;17.69;48.02
52719;BME280;38616;42.140;24.760;2023-04-24T10:22:55;99271.53;;;17.99;47.32
52719;BME280;38616;42.140;24.760;2023-04-24T10:25:23;99270.75;;;17.98;46.75
52719;BME280;38616;42.140;24.760;2023-04-24T10:27:50;99264.72;;;18.05;46.79
52719;BME280;38616;42.140;24.760;2023-04-24T10:30:17;99258.75;;;18.49;46.74
52719;BME280;38616;42.140;24.760;2023-04-24T10:32:43;99257.59;;;18.63;46.20
52719;BME280;38616;42.140;24.760;2023-04-24T10:35:11;99258.63;;;18.58;46.09
52719;BME280;38616;42.140;24.760;2023-04-24T10:37:40;99259.53;;;18.62;46.31
52719;BME280;38616;42.140;24.760;2023-04-24T10:40:08;99252.00;;;18.46;46.79
52719;BME280;38616;42.140;24.760;2023-04-24T10:42:34;99240.06;;;18.42;46.92
52719;BME280;38616;42.140;24.760;2023-04-24T10:45:04;99239.88;;;18.14;47.54
52719;BME280;38616;42.140;24.760;2023-04-24T10:47:39;99231.78;;;18.30;47.33
52719;BME280;38616;42.140;24.760;2023-04-24T10:50:09;99231.78;;;18.30;47.21
52719;BME280;38616;42.140;24.760;2023-04-24T10:52:48;99224.72;;;18.41;46.99
52719;BME280;38616;42.140;24.760;2023-04-24T10:55:16;99227.34;;;18.63;46.81
52719;BME280;38616;42.140;24.760;2023-04-24T10:58:04;99225.72;;;18.49;47.28
52719;BME280;38616;42.140;24.760;2023-04-24T11:00:30;99219.56;;;18.65;47.09
52719;BME280;38616;42.140;24.760;2023-04-24T11:02:56;99217.03;;;18.84;46.72
52719;BME280;38616;42.140;24.760;2023-04-24T11:08:44;99212.22;;;18.56;47.24
52719;BME280;38616;42.140;24.760;2023-04-24T11:17:26;99197.91;;;19.29;45.66
52719;BME280;38616;42.140;24.760;2023-04-24T11:24:31;99191.19;;;19.14;45.83
52719;BME280;38616;42.140;24.760;2023-04-24T11:27:00;99188.22;;;19.07;45.46
52719;BME280;38616;42.140;24.760;2023-04-24T11:32:40;99176.00;;;18.79;46.42
52719;BME280;38616;42.140;24.760;2023-04-24T11:35:15;99174.19;;;19.24;46.01
52719;BME280;38616;42.140;24.760;2023-04-24T11:37:59;99168.97;;;19.63;45.32
52719;BME280;38616;42.140;24.760;2023-04-24T11:40:28;99171.69;;;19.76;45.33
52719;BME280;38616;42.140;24.760;2023-04-24T11:42:53;99170.13;;;19.91;45.37
52719;BME280;38616;42.140;24.760;2023-04-24T11:45:27;99167.03;;;20.08;45.04
52719;BME280;38616;42.140;24.760;2023-04-24T11:47:53;99162.66;;;20.07;45.15
52719;BME280;38616;42.140;24.760;2023-04-24T11:50:20;99169.16;;;20.31;44.79
52719;BME280;38616;42.140;24.760;2023-04-24T11:52:47;99151.22;;;20.21;44.47
52719;BME280;38616;42.140;24.760;2023-04-24T11:57:48;99138.31;;;20.26;44.57
52719;BME280;38616;42.140;24.760;2023-04-24T12:00:28;99138.31;;;20.26;44.69
52719;BME280;38616;42.140;24.760;2023-04-24T12:03:07;99118.56;;;20.23;44.41
52719;BME280;38616;42.140;24.760;2023-04-24T12:05:33;99114.53;;;20.37;44.24
52719;BME280;38616;42.140;24.760;2023-04-24T12:07:59;99126.16;;;20.46;44.09
52719;BME280;38616;42.140;24.760;2023-04-24T12:10:27;99111.16;;;20.44;44.27
52719;BME280;38616;42.140;24.760;2023-04-24T12:12:56;99104.47;;;20.45;44.51
52719;BME280;38616;42.140;24.760;2023-04-24T12:15:22;99092.44;;;20.53;44.28
52719;BME280;38616;42.140;24.760;2023-04-24T12:17:49;99091.06;;;20.27;44.48
52719;BME280;38616;42.140;24.760;2023-04-24T12:20:15;99076.25;;;20.00;45.64
52719;BME280;38616;42.140;24.760;2023-04-24T12:25:16;99056.63;;;20.21;45.83
52719;BME280;38616;42.140;24.760;2023-04-24T12:27:43;99050.19;;;20.13;46.12
52719;BME280;38616;42.140;24.760;2023-04-24T12:30:14;99049.19;;;20.21;45.89
52719;BME280;38616;42.140;24.760;2023-04-24T12:32:47;99048.94;;;19.95;46.41
52719;BME280;38616;42.140;24.760;2023-04-24T12:35:13;99049.47;;;20.00;46.42
52719;BME280;38616;42.140;24.760;2023-04-24T12:37:42;99035.63;;;20.32;45.28
52719;BME280;38616;42.140;24.760;2023-04-24T12:40:10;99023.97;;;20.59;44.67
52719;BME280;38616;42.140;24.760;2023-04-24T12:42:50;99031.91;;;20.60;44.82
52719;BME280;38616;42.140;24.760;2023-04-24T12:45:16;99032.66;;;20.41;45.13
52719;BME280;38616;42.140;24.760;2023-04-24T12:47:43;99020.56;;;20.65;44.56
52719;BME280;38616;42.140;24.760;2023-04-24T12:50:12;99012.72;;;20.67;44.20
52719;BME280;38616;42.140;24.760;2023-04-24T12:52:38;99010.75;;;20.29;45.22
52719;BME280;38616;42.140;24.760;2023-04-24T12:57:31;99001.28;;;19.94;45.18
52719;BME280;38616;42.140;24.760;2023-04-24T12:59:58;98994.88;;;20.06;45.34
52719;BME280;38616;42.140;24.760;2023-04-24T13:02:25;98988.38;;;19.82;45.67
52719;BME280;38616;42.140;24.760;2023-04-24T13:04:52;98989.59;;;20.17;45.21
52719;BME280;38616;42.140;24.760;2023-04-24T13:07:19;98997.47;;;19.99;45.23
52719;BME280;38616;42.140;24.760;2023-04-24T13:09:44;98993.03;;;20.30;44.55
52719;BME280;38616;42.140;24.760;2023-04-24T13:12:11;98975.84;;;20.01;45.35
52719;BME280;38616;42.140;24.760;2023-04-24T13:14:37;98968.94;;;20.27;44.82
52719;BME280;38616;42.140;24.760;2023-04-24T13:17:03;98973.28;;;20.67;44.00